createdAt,value
2022-10-31T00:12:23.443Z,2.40
2022-10-31T00:49:40.730Z,2.20
2022-10-31T01:08:21.044Z,3.30
2022-10-31T01:27:09.334Z,2.50
2022-10-31T01:45:41.513Z,2.50
2022-10-31T02:04:20.690Z,3.50
2022-10-31T02:23:02.764Z,4.10
2022-10-31T02:41:41.342Z,3.70
2022-10-31T03:18:59.448Z,3.50
2022-10-31T03:37:39.592Z,4.20
2022-10-31T04:33:36.466Z,2.10
2022-10-31T04:52:17.214Z,1.90
2022-10-31T05:10:54.938Z,4.20
2022-10-31T05:29:35.011Z,4.10
2022-10-31T05:48:13.964Z,4.30
2022-10-31T06:06:57.787Z,4.30
2022-10-31T06:44:18.121Z,5.90
2022-10-31T07:02:57.575Z,4.20
2022-10-31T07:21:39.105Z,4.30
2022-10-31T07:59:03.911Z,3.40
2022-10-31T08:17:47.048Z,3.30
2022-10-31T08:55:12.090Z,1.90
2022-10-31T09:51:37.159Z,2.30
2022-10-31T10:10:34.222Z,3.90
2022-10-31T10:48:20.806Z,2.60
2022-10-31T11:06:54.273Z,2.20
2022-10-31T11:25:39.255Z,2.50
2022-10-31T11:44:26.216Z,1.20
2022-10-31T12:03:07.830Z,2.30
2022-10-31T12:21:51.522Z,2.60
2022-10-31T12:59:15.439Z,2.10
2022-10-31T13:17:53.462Z,1.90
2022-10-31T13:36:39.427Z,2.30
2022-10-31T13:55:22.293Z,1.40
2022-10-31T14:13:56.081Z,2.40
2022-10-31T14:32:19.420Z,2.30
2022-10-31T14:50:48.504Z,3.30
2022-10-31T15:09:20.102Z,4.40
2022-10-31T15:27:54.471Z,2.60
2022-10-31T15:46:29.486Z,2.20
2022-10-31T16:05:10.096Z,3.20
2022-10-31T16:23:44.499Z,3.20
2022-10-31T16:42:19.708Z,4.80
2022-10-31T17:00:58.409Z,5.10
2022-10-31T17:19:36.489Z,4.20
2022-10-31T17:38:21.083Z,4.10
2022-10-31T17:56:55.895Z,8.00
2022-10-31T18:15:33.362Z,4.40
2022-10-31T18:52:44.352Z,5.10
2022-10-31T19:30:02.030Z,3.80
2022-10-31T19:48:43.055Z,6.60
2022-10-31T20:26:00.311Z,8.90
2022-10-31T21:03:20.309Z,7.30
2022-10-31T21:21:54.578Z,7.50
2022-10-31T21:40:32.966Z,5.80
2022-10-31T21:59:12.987Z,6.40
2022-10-31T22:17:53.055Z,7.00
2022-10-31T22:55:11.535Z,5.70
2022-10-31T23:51:10.249Z,3.30
